Time;durP1;ratioP1;P1;durP2;ratioP2;P2;SDS_P1;SDS_P2;PMS_P1;PMS_P2;Temp;Humidity;BMP_temperature;BMP_pressure;BME280_temperature;BME280_humidity;BME280_pressure;Samples;Min_cycle;Max_cycle;Signal;HPM_P1;HPM_P2
2023/04/02 00:00:33;;;;;;;1.50;1.50;;;;;;;;;;4978642;28;20666;-58
2023/04/02 00:03:00;;;;;;;1.50;1.50;;;;;;;;;;4979767;28;20194;-57
2023/04/02 00:05:29;;;;;;;1.40;1.40;;;;;;;;;;4981347;28;20186;-57
2023/04/02 00:07:59;;;;;;;1.20;1.20;;;;;;;;;;4982097;28;20213;-57
2023/04/02 00:10:26;;;;;;;1.20;1.20;;;;;;;;;;4975223;28;20206;-57
2023/04/02 00:13:00;;;;;;;1.20;1.20;;;;;;;;;;4965522;28;20259;-57
2023/04/02 00:15:26;;;;;;;1.20;1.20;;;;;;;;;;4975382;28;20186;-58
2023/04/02 00:17:52;;;;;;;1.20;1.20;;;;;;;;;;4973846;28;20182;-57
2023/04/02 00:20:18;;;;;;;1.00;1.00;;;;;;;;;;4979446;28;20197;-57
2023/04/02 00:22:44;;;;;;;1.00;1.00;;;;;;;;;;4978360;28;20190;-57
2023/04/02 00:25:12;;;;;;;1.00;1.00;;;;;;;;;;4965737;28;20191;-57
2023/04/02 00:27:38;;;;;;;1.20;1.20;;;;;;;;;;4966344;28;20601;-57
2023/04/02 00:30:04;;;;;;;1.00;1.00;;;;;;;;;;4954749;28;20216;-57
2023/04/02 00:32:30;;;;;;;1.00;1.00;;;;;;;;;;4969614;28;20598;-58
2023/04/02 00:34:57;;;;;;;1.00;1.00;;;;;;;;;;4971767;28;20194;-58
2023/04/02 00:37:37;;;;;;;1.00;1.00;;;;;;;;;;4975630;28;20195;-57
2023/04/02 00:40:06;;;;;;;1.10;1.10;;;;;;;;;;4957799;28;20234;-57
2023/04/02 00:42:32;;;;;;;1.27;1.27;;;;;;;;;;4955309;28;20207;-57
2023/04/02 00:44:57;;;;;;;1.30;1.30;;;;;;;;;;4952027;28;20195;-58
2023/04/02 00:47:34;;;;;;;1.30;1.30;;;;;;;;;;4956214;28;20191;-57
2023/04/02 00:50:07;;;;;;;1.60;1.60;;;;;;;;;;4955446;28;20334;-58
2023/04/02 00:52:33;;;;;;;1.87;1.77;;;;;;;;;;4952827;28;20220;-57
2023/04/02 00:55:06;;;;;;;1.60;1.60;;;;;;;;;;4950979;28;20210;-58
2023/04/02 00:57:32;;;;;;;1.60;1.60;;;;;;;;;;4957130;28;20195;-58
2023/04/02 01:00:01;;;;;;;1.57;1.57;;;;;;;;;;4953662;28;20187;-57
2023/04/02 01:02:29;;;;;;;1.40;1.40;;;;;;;;;;4958605;28;20280;-59
2023/04/02 01:04:56;;;;;;;1.30;1.30;;;;;;;;;;4951906;28;20201;-59
2023/04/02 01:07:38;;;;;;;1.60;1.60;;;;;;;;;;4961729;28;20270;-59
2023/04/02 01:10:04;;;;;;;1.20;1.20;;;;;;;;;;4952799;28;20262;-59
2023/04/02 01:12:49;;;;;;;1.57;1.57;;;;;;;;;;4949357;28;20268;-62
2023/04/02 01:15:21;;;;;;;1.40;1.40;;;;;;;;;;4948800;28;20192;-59
2023/04/02 01:18:00;;;;;;;1.40;1.40;;;;;;;;;;4945742;28;20191;-59
2023/04/02 01:20:35;;;;;;;1.70;1.70;;;;;;;;;;4970574;28;20222;-59
2023/04/02 01:23:08;;;;;;;1.00;1.00;;;;;;;;;;4971103;28;20257;-59
2023/04/02 01:25:42;;;;;;;1.00;1.00;;;;;;;;;;4970560;28;20199;-59
2023/04/02 01:28:18;;;;;;;0.90;0.90;;;;;;;;;;4956874;28;20225;-59
2023/04/02 01:30:44;;;;;;;0.90;0.90;;;;;;;;;;4951759;28;20591;-59
2023/04/02 01:33:10;;;;;;;0.90;0.90;;;;;;;;;;4946773;28;20265;-59
2023/04/02 01:35:37;;;;;;;1.07;1.07;;;;;;;;;;4953401;28;20187;-59
2023/04/02 01:38:06;;;;;;;0.90;0.90;;;;;;;;;;4956098;28;20795;-59
2023/04/02 01:40:38;;;;;;;1.10;1.10;;;;;;;;;;4949761;28;20293;-59
2023/04/02 01:43:19;;;;;;;0.90;0.90;;;;;;;;;;4948726;28;20197;-59
2023/04/02 01:45:45;;;;;;;1.00;1.00;;;;;;;;;;4951553;28;20191;-59
2023/04/02 01:48:13;;;;;;;1.30;1.30;;;;;;;;;;4946346;28;20194;-59
2023/04/02 01:50:40;;;;;;;1.40;1.40;;;;;;;;;;4948086;28;20286;-59
2023/04/02 01:53:06;;;;;;;1.10;1.10;;;;;;;;;;4945075;28;20187;-59
2023/04/02 01:55:53;;;;;;;1.20;1.20;;;;;;;;;;4950089;28;20670;-59
2023/04/02 01:58:19;;;;;;;1.30;1.30;;;;;;;;;;4954972;28;20206;-59
2023/04/02 02:00:47;;;;;;;1.10;1.10;;;;;;;;;;4961780;28;20254;-59
2023/04/02 02:03:13;;;;;;;1.53;1.53;;;;;;;;;;4949303;28;20322;-59
2023/04/02 02:05:39;;;;;;;1.33;1.33;;;;;;;;;;4958451;28;20282;-59
2023/04/02 02:08:05;;;;;;;1.30;1.30;;;;;;;;;;4950900;28;20195;-59
2023/04/02 02:10:35;;;;;;;1.40;1.40;;;;;;;;;;4955780;28;20640;-59
2023/04/02 02:13:01;;;;;;;1.40;1.40;;;;;;;;;;4957655;28;20196;-59
2023/04/02 02:15:27;;;;;;;1.47;1.47;;;;;;;;;;4956721;28;20810;-59
2023/04/02 02:17:55;;;;;;;1.47;1.47;;;;;;;;;;4955509;28;20283;-59
2023/04/02 02:20:21;;;;;;;1.30;1.30;;;;;;;;;;4959504;28;20191;-59
2023/04/02 02:22:47;;;;;;;1.40;1.40;;;;;;;;;;4956489;28;20209;-59
2023/04/02 02:25:16;;;;;;;1.40;1.40;;;;;;;;;;4953697;28;20332;-59
2023/04/02 02:27:44;;;;;;;1.70;1.70;;;;;;;;;;4953675;28;20737;-59
2023/04/02 02:30:21;;;;;;;1.97;1.87;;;;;;;;;;4952562;28;20226;-59
2023/04/02 02:32:55;;;;;;;2.00;1.90;;;;;;;;;;4956367;28;20234;-59
2023/04/02 02:35:22;;;;;;;2.07;1.97;;;;;;;;;;4956175;28;20254;-59
2023/04/02 02:38:27;;;;;;;1.60;1.60;;;;;;;;;;4950332;28;20600;-59
2023/04/02 02:40:53;;;;;;;1.20;1.20;;;;;;;;;;4922132;29;20619;-59
2023/04/02 02:43:19;;;;;;;1.60;1.60;;;;;;;;;;4919808;29;20566;-59
2023/04/02 02:45:46;;;;;;;0.90;0.90;;;;;;;;;;4933314;28;20199;-59
2023/04/02 02:48:13;;;;;;;1.83;1.73;;;;;;;;;;4951543;28;20195;-59
2023/04/02 02:50:39;;;;;;;1.30;1.30;;;;;;;;;;4953394;28;20187;-59
2023/04/02 02:53:11;;;;;;;1.50;1.50;;;;;;;;;;4954575;28;20211;-60
2023/04/02 02:55:37;;;;;;;1.40;1.40;;;;;;;;;;4952279;28;20278;-59
2023/04/02 02:58:18;;;;;;;1.40;1.40;;;;;;;;;;4954231;28;21718;-59
2023/04/02 03:00:44;;;;;;;1.80;1.70;;;;;;;;;;4953090;28;20191;-60
2023/04/02 03:03:31;;;;;;;1.50;1.50;;;;;;;;;;4951907;28;20342;-59
2023/04/02 03:06:01;;;;;;;1.50;1.50;;;;;;;;;;4952366;28;20553;-59
2023/04/02 03:08:31;;;;;;;1.50;1.50;;;;;;;;;;4955491;28;20191;-59
2023/04/02 03:11:21;;;;;;;1.50;1.50;;;;;;;;;;4954623;28;20689;-59
2023/04/02 03:13:51;;;;;;;1.40;1.40;;;;;;;;;;4948480;28;20286;-59
2023/04/02 03:16:53;;;;;;;1.20;1.20;;;;;;;;;;4952375;28;20683;-59
2023/04/02 03:19:23;;;;;;;1.07;1.07;;;;;;;;;;4916019;29;20200;-59
2023/04/02 03:21:54;;;;;;;1.23;1.23;;;;;;;;;;4949171;28;20262;-59
2023/04/02 03:24:26;;;;;;;1.10;1.10;;;;;;;;;;4956858;28;22154;-59
2023/04/02 03:26:54;;;;;;;1.00;1.00;;;;;;;;;;4953646;28;20184;-59
2023/04/02 03:29:22;;;;;;;1.00;1.00;;;;;;;;;;4950363;28;20227;-59
2023/04/02 03:31:48;;;;;;;1.20;1.20;;;;;;;;;;4951686;28;20236;-59
2023/04/02 03:34:19;;;;;;;1.30;1.30;;;;;;;;;;4952076;28;20199;-59
2023/04/02 03:36:52;;;;;;;1.20;1.20;;;;;;;;;;4954546;28;20214;-59
2023/04/02 03:39:19;;;;;;;1.40;1.40;;;;;;;;;;4953498;28;20231;-59
2023/04/02 03:41:56;;;;;;;1.20;1.20;;;;;;;;;;4950709;28;20197;-59
2023/04/02 03:44:26;;;;;;;1.30;1.30;;;;;;;;;;4952536;28;20251;-59
2023/04/02 03:46:56;;;;;;;1.40;1.40;;;;;;;;;;4955862;28;20568;-62
2023/04/02 03:49:27;;;;;;;1.40;1.40;;;;;;;;;;4951747;28;20305;-59
2023/04/02 03:52:02;;;;;;;1.40;1.40;;;;;;;;;;4956134;28;20618;-59
2023/04/02 03:54:28;;;;;;;1.40;1.40;;;;;;;;;;4952888;28;20190;-59
2023/04/02 03:56:54;;;;;;;1.63;1.63;;;;;;;;;;4951276;28;20199;-59
2023/04/02 03:59:21;;;;;;;1.70;1.70;;;;;;;;;;4961784;28;20188;-59
2023/04/02 04:01:51;;;;;;;1.70;1.70;;;;;;;;;;4959402;28;20295;-59
2023/04/02 04:04:17;;;;;;;1.40;1.40;;;;;;;;;;4958083;28;20277;-59
2023/04/02 04:06:44;;;;;;;1.40;1.40;;;;;;;;;;4959336;28;20245;-59
2023/04/02 04:09:11;;;;;;;1.20;1.20;;;;;;;;;;4958031;28;20272;-59
2023/04/02 04:11:43;;;;;;;1.60;1.60;;;;;;;;;;4958523;28;21000;-59
2023/04/02 04:14:14;;;;;;;1.20;1.20;;;;;;;;;;4947992;28;20206;-59
2023/04/02 04:16:42;;;;;;;1.40;1.40;;;;;;;;;;4957470;28;20266;-59
2023/04/02 04:19:14;;;;;;;1.20;1.20;;;;;;;;;;4958710;28;20188;-59
2023/04/02 04:21:44;;;;;;;1.20;1.20;;;;;;;;;;4958242;28;20195;-59
2023/04/02 04:24:20;;;;;;;1.10;1.10;;;;;;;;;;4955962;28;20198;-59
2023/04/02 04:27:02;;;;;;;1.10;1.10;;;;;;;;;;4953462;28;20266;-59
2023/04/02 04:29:33;;;;;;;1.00;1.00;;;;;;;;;;4950217;28;20757;-59
2023/04/02 04:32:09;;;;;;;0.90;0.90;;;;;;;;;;4953056;28;20234;-59
2023/04/02 04:34:45;;;;;;;0.90;0.90;;;;;;;;;;4957400;28;20191;-59
2023/04/02 04:37:20;;;;;;;0.80;0.80;;;;;;;;;;4956783;28;20422;-59
2023/04/02 04:39:50;;;;;;;1.30;1.30;;;;;;;;;;4965439;28;20245;-59
2023/04/02 04:42:20;;;;;;;1.00;1.00;;;;;;;;;;4977434;28;20198;-59
2023/04/02 04:45:00;;;;;;;1.00;1.00;;;;;;;;;;4976885;28;20195;-59
2023/04/02 04:47:29;;;;;;;1.20;1.20;;;;;;;;;;4975962;28;20582;-59
2023/04/02 04:50:34;;;;;;;1.13;1.13;;;;;;;;;;4972709;28;20206;-60
2023/04/02 04:53:13;;;;;;;1.00;1.00;;;;;;;;;;4938256;28;20329;-59
2023/04/02 04:55:40;;;;;;;1.13;1.13;;;;;;;;;;4923977;28;20198;-59
2023/04/02 04:58:15;;;;;;;1.00;1.00;;;;;;;;;;4958945;28;20210;-59
2023/04/02 05:00:50;;;;;;;1.10;1.10;;;;;;;;;;4970316;28;20304;-59
2023/04/02 05:03:35;;;;;;;0.90;0.90;;;;;;;;;;4976830;28;20186;-59
2023/04/02 05:06:22;;;;;;;0.90;0.90;;;;;;;;;;4974292;28;20722;-59
2023/04/02 05:08:48;;;;;;;1.00;1.00;;;;;;;;;;4944423;28;20203;-59
2023/04/02 05:11:15;;;;;;;0.90;0.90;;;;;;;;;;4956995;28;20269;-59
2023/04/02 05:13:44;;;;;;;1.00;1.00;;;;;;;;;;4959785;28;20188;-59
2023/04/02 05:16:15;;;;;;;1.00;1.00;;;;;;;;;;4971933;28;20193;-59
2023/04/02 05:18:53;;;;;;;0.90;0.90;;;;;;;;;;4973835;28;20571;-59
2023/04/02 05:21:19;;;;;;;0.90;0.90;;;;;;;;;;4968772;28;20218;-59
2023/04/02 05:23:53;;;;;;;0.90;0.90;;;;;;;;;;4976685;28;20197;-59
2023/04/02 05:26:21;;;;;;;1.00;1.00;;;;;;;;;;4970053;28;20661;-59
2023/04/02 05:28:50;;;;;;;1.00;1.00;;;;;;;;;;4975569;28;20182;-59
2023/04/02 05:31:25;;;;;;;0.80;0.80;;;;;;;;;;4970131;28;20288;-59
2023/04/02 05:33:51;;;;;;;0.90;0.90;;;;;;;;;;4957798;28;20194;-59
2023/04/02 05:36:18;;;;;;;1.00;1.00;;;;;;;;;;4964985;28;20568;-59
2023/04/02 05:38:45;;;;;;;0.90;0.90;;;;;;;;;;4958598;28;20240;-59
2023/04/02 05:41:21;;;;;;;1.00;1.00;;;;;;;;;;4954238;28;20190;-59
2023/04/02 05:43:48;;;;;;;1.00;1.00;;;;;;;;;;4955745;28;20209;-59
2023/04/02 05:46:18;;;;;;;1.00;1.00;;;;;;;;;;4953481;28;20659;-59
2023/04/02 05:48:45;;;;;;;1.00;1.00;;;;;;;;;;4969642;28;20532;-59
2023/04/02 05:51:18;;;;;;;1.00;1.00;;;;;;;;;;4964139;28;20682;-59
2023/04/02 05:53:46;;;;;;;1.00;1.00;;;;;;;;;;4963403;28;20654;-59
2023/04/02 05:56:15;;;;;;;0.93;0.93;;;;;;;;;;4961792;28;20193;-59
2023/04/02 05:58:45;;;;;;;1.00;1.00;;;;;;;;;;4969858;28;20197;-59
2023/04/02 06:01:14;;;;;;;0.90;0.90;;;;;;;;;;4972098;28;20194;-59
2023/04/02 06:03:57;;;;;;;0.90;0.90;;;;;;;;;;4975722;28;20763;-60
2023/04/02 06:06:28;;;;;;;0.90;0.90;;;;;;;;;;4956100;28;20224;-59
2023/04/02 06:09:00;;;;;;;1.00;1.00;;;;;;;;;;4959497;28;20195;-59
2023/04/02 06:11:28;;;;;;;1.00;1.00;;;;;;;;;;4963808;28;20294;-59
2023/04/02 06:13:54;;;;;;;0.90;0.90;;;;;;;;;;4973076;28;20565;-59
2023/04/02 06:16:20;;;;;;;1.00;1.00;;;;;;;;;;4976558;28;20197;-59
2023/04/02 06:18:46;;;;;;;1.00;1.00;;;;;;;;;;4973263;28;20214;-59
2023/04/02 06:21:12;;;;;;;0.90;0.90;;;;;;;;;;4975992;28;20257;-59
2023/04/02 06:23:40;;;;;;;1.00;1.00;;;;;;;;;;4975282;28;20197;-59
2023/04/02 06:26:25;;;;;;;1.00;1.00;;;;;;;;;;4958321;28;20190;-59
2023/04/02 06:28:57;;;;;;;1.00;1.00;;;;;;;;;;4970656;28;20832;-60
2023/04/02 06:31:27;;;;;;;1.03;1.03;;;;;;;;;;4967636;28;20276;-59
2023/04/02 06:33:55;;;;;;;0.93;0.93;;;;;;;;;;4956007;28;20609;-59
2023/04/02 06:36:21;;;;;;;0.90;0.90;;;;;;;;;;4967971;28;20230;-59
2023/04/02 06:38:47;;;;;;;1.00;1.00;;;;;;;;;;4959728;28;20190;-59
2023/04/02 06:41:20;;;;;;;0.90;0.90;;;;;;;;;;4968080;28;20189;-59
2023/04/02 06:43:47;;;;;;;0.80;0.80;;;;;;;;;;4969654;28;20901;-59
2023/04/02 06:46:18;;;;;;;0.90;0.90;;;;;;;;;;4966066;28;20223;-59
2023/04/02 06:48:45;;;;;;;0.90;0.90;;;;;;;;;;4957993;28;20199;-59
2023/04/02 06:51:11;;;;;;;0.93;0.93;;;;;;;;;;4971578;28;20217;-59
2023/04/02 06:53:38;;;;;;;0.80;0.80;;;;;;;;;;4952253;28;20195;-59
2023/04/02 06:56:16;;;;;;;0.90;0.90;;;;;;;;;;4967407;28;20194;-59
2023/04/02 06:58:42;;;;;;;0.90;0.90;;;;;;;;;;4970148;28;20546;-59
2023/04/02 07:01:08;;;;;;;1.00;1.00;;;;;;;;;;4965458;28;20547;-59
2023/04/02 07:03:34;;;;;;;0.80;0.80;;;;;;;;;;4972843;28;20282;-59
2023/04/02 07:06:00;;;;;;;0.93;0.93;;;;;;;;;;4970501;28;20222;-59
2023/04/02 07:08:26;;;;;;;0.80;0.80;;;;;;;;;;4973778;28;20270;-59
2023/04/02 07:10:52;;;;;;;0.97;0.97;;;;;;;;;;4969535;28;20681;-59
2023/04/02 07:13:19;;;;;;;0.90;0.90;;;;;;;;;;4977438;28;20319;-59
2023/04/02 07:15:45;;;;;;;1.00;1.00;;;;;;;;;;4973115;28;20194;-59
2023/04/02 07:18:21;;;;;;;0.80;0.80;;;;;;;;;;4974437;28;20186;-59
2023/04/02 07:20:47;;;;;;;1.00;1.00;;;;;;;;;;4974524;28;20607;-59
2023/04/02 07:23:13;;;;;;;0.90;0.90;;;;;;;;;;4974004;28;20194;-59
2023/04/02 07:25:39;;;;;;;0.90;0.90;;;;;;;;;;4969802;28;20277;-59
2023/04/02 07:28:06;;;;;;;0.90;0.90;;;;;;;;;;4974538;28;20213;-59
2023/04/02 07:30:31;;;;;;;0.80;0.80;;;;;;;;;;4973768;28;20194;-59
2023/04/02 07:32:57;;;;;;;0.90;0.90;;;;;;;;;;4974492;28;20217;-59
2023/04/02 07:35:23;;;;;;;1.00;1.00;;;;;;;;;;4970789;28;20560;-59
2023/04/02 07:37:51;;;;;;;1.00;1.00;;;;;;;;;;4975156;28;20175;-59
2023/04/02 07:40:22;;;;;;;1.00;1.00;;;;;;;;;;4978816;28;20289;-59
2023/04/02 07:42:48;;;;;;;1.00;1.00;;;;;;;;;;4981845;28;20187;-59
2023/04/02 07:45:14;;;;;;;0.90;0.90;;;;;;;;;;4978981;28;20275;-61
2023/04/02 07:47:41;;;;;;;0.90;0.90;;;;;;;;;;4975702;28;20723;-59
2023/04/02 07:50:07;;;;;;;0.90;0.90;;;;;;;;;;4978314;28;20195;-59
2023/04/02 07:52:34;;;;;;;0.90;0.90;;;;;;;;;;4982530;28;20211;-59
2023/04/02 07:55:00;;;;;;;0.90;0.90;;;;;;;;;;4982251;28;20194;-59
2023/04/02 07:57:26;;;;;;;0.90;0.90;;;;;;;;;;4977931;28;20194;-59
2023/04/02 07:59:55;;;;;;;0.90;0.90;;;;;;;;;;4972857;28;20613;-59
2023/04/02 08:02:21;;;;;;;0.90;0.90;;;;;;;;;;4971634;28;20210;-59
2023/04/02 08:04:47;;;;;;;1.00;1.00;;;;;;;;;;4960489;28;20178;-59
2023/04/02 08:07:13;;;;;;;1.00;1.00;;;;;;;;;;4975090;28;20629;-59
2023/04/02 08:09:39;;;;;;;0.90;0.90;;;;;;;;;;4971586;28;20209;-59
2023/04/02 08:12:05;;;;;;;0.90;0.90;;;;;;;;;;4976132;28;20206;-59
2023/04/02 08:14:31;;;;;;;0.90;0.90;;;;;;;;;;4973650;28;20198;-58
2023/04/02 08:16:57;;;;;;;0.90;0.90;;;;;;;;;;4974406;28;20574;-59
2023/04/02 08:19:23;;;;;;;0.90;0.90;;;;;;;;;;4969871;28;20195;-59
2023/04/02 08:21:50;;;;;;;0.90;0.90;;;;;;;;;;4976188;28;20194;-59
2023/04/02 08:24:18;;;;;;;0.90;0.90;;;;;;;;;;4969995;28;20269;-59
2023/04/02 08:26:44;;;;;;;0.90;0.90;;;;;;;;;;4960807;28;20194;-59
2023/04/02 08:29:10;;;;;;;0.90;0.90;;;;;;;;;;4967706;28;20202;-59
2023/04/02 08:31:36;;;;;;;0.90;0.90;;;;;;;;;;4975217;28;20215;-59
2023/04/02 08:34:02;;;;;;;1.00;1.00;;;;;;;;;;4977017;28;20182;-60
2023/04/02 08:36:34;;;;;;;1.00;1.00;;;;;;;;;;4976036;28;20301;-60
2023/04/02 08:39:00;;;;;;;0.90;0.90;;;;;;;;;;4975344;28;20277;-59
2023/04/02 08:41:26;;;;;;;1.10;1.10;;;;;;;;;;4978207;28;20202;-60
2023/04/02 08:43:55;;;;;;;1.00;1.00;;;;;;;;;;4976870;28;20193;-59
2023/04/02 08:46:21;;;;;;;1.00;1.00;;;;;;;;;;4972872;28;21751;-59
2023/04/02 08:48:49;;;;;;;0.90;0.90;;;;;;;;;;4972619;28;20233;-59
2023/04/02 08:51:19;;;;;;;0.90;0.90;;;;;;;;;;4954798;28;20226;-59
2023/04/02 08:53:45;;;;;;;1.00;1.00;;;;;;;;;;4962171;28;20194;-59
2023/04/02 08:56:19;;;;;;;0.80;0.80;;;;;;;;;;4967142;28;20210;-59
2023/04/02 08:58:53;;;;;;;0.97;0.97;;;;;;;;;;4967172;28;20572;-59
2023/04/02 09:01:19;;;;;;;1.00;1.00;;;;;;;;;;4937656;28;20850;-59
2023/04/02 09:03:45;;;;;;;0.90;0.90;;;;;;;;;;4957260;28;20194;-60
2023/04/02 09:06:12;;;;;;;1.00;1.00;;;;;;;;;;4963654;28;20711;-60
2023/04/02 09:08:38;;;;;;;0.90;0.90;;;;;;;;;;4958422;28;20321;-59
2023/04/02 09:11:08;;;;;;;0.90;0.90;;;;;;;;;;4962292;28;20718;-60
2023/04/02 09:13:36;;;;;;;0.80;0.80;;;;;;;;;;4960278;28;20195;-62
2023/04/02 09:16:09;;;;;;;0.90;0.90;;;;;;;;;;4954786;28;20191;-59
2023/04/02 09:18:35;;;;;;;0.90;0.90;;;;;;;;;;4959440;28;20206;-59
2023/04/02 09:21:16;;;;;;;0.70;0.70;;;;;;;;;;4958266;28;20245;-59
2023/04/02 09:23:42;;;;;;;0.97;0.97;;;;;;;;;;4946772;28;20268;-60
2023/04/02 09:26:18;;;;;;;0.90;0.90;;;;;;;;;;4959110;28;20197;-60
2023/04/02 09:28:44;;;;;;;0.80;0.80;;;;;;;;;;4958832;28;20825;-60
2023/04/02 09:31:24;;;;;;;0.90;0.90;;;;;;;;;;4950373;28;20413;-60
2023/04/02 09:33:52;;;;;;;0.90;0.90;;;;;;;;;;4946517;28;20187;-60
2023/04/02 09:36:37;;;;;;;0.70;0.70;;;;;;;;;;4950430;28;21126;-60
2023/04/02 09:39:06;;;;;;;1.00;1.00;;;;;;;;;;4936434;28;20273;-60
2023/04/02 09:41:32;;;;;;;0.90;0.90;;;;;;;;;;4962488;28;20226;-60
2023/04/02 09:44:19;;;;;;;0.90;0.90;;;;;;;;;;4966786;28;20182;-60
2023/04/02 09:46:54;;;;;;;0.90;0.90;;;;;;;;;;4956868;28;20649;-60
2023/04/02 09:49:23;;;;;;;0.80;0.80;;;;;;;;;;4958715;28;20687;-60
2023/04/02 09:52:05;;;;;;;0.80;0.80;;;;;;;;;;4930033;28;20202;-60
2023/04/02 09:54:31;;;;;;;0.80;0.80;;;;;;;;;;4959666;28;20213;-60
2023/04/02 09:56:59;;;;;;;0.90;0.90;;;;;;;;;;4969273;28;20665;-60
2023/04/02 09:59:25;;;;;;;0.80;0.80;;;;;;;;;;4967141;28;20621;-60
2023/04/02 10:01:54;;;;;;;0.90;0.90;;;;;;;;;;4967749;28;20847;-60
2023/04/02 10:04:33;;;;;;;0.90;0.90;;;;;;;;;;4965143;28;20182;-61
2023/04/02 10:06:59;;;;;;;0.80;0.80;;;;;;;;;;4961439;28;20241;-62
2023/04/02 10:09:29;;;;;;;0.90;0.90;;;;;;;;;;4969492;28;21908;-59
2023/04/02 10:11:55;;;;;;;0.90;0.90;;;;;;;;;;4951489;28;20703;-61
2023/04/02 10:14:22;;;;;;;1.00;1.00;;;;;;;;;;4961807;28;20201;-61
2023/04/02 10:16:52;;;;;;;0.90;0.90;;;;;;;;;;4937700;28;20202;-61
2023/04/02 10:19:21;;;;;;;1.00;1.00;;;;;;;;;;4962479;28;20194;-61
2023/04/02 10:21:51;;;;;;;0.80;0.80;;;;;;;;;;4960974;28;20652;-61
2023/04/02 10:24:17;;;;;;;0.90;0.90;;;;;;;;;;4962936;28;20207;-61
2023/04/02 10:26:43;;;;;;;0.80;0.80;;;;;;;;;;4958147;28;20597;-60
2023/04/02 10:29:21;;;;;;;0.80;0.80;;;;;;;;;;4962672;28;20190;-61
2023/04/02 10:32:00;;;;;;;0.90;0.90;;;;;;;;;;4957999;28;20206;-60
2023/04/02 10:34:39;;;;;;;0.90;0.90;;;;;;;;;;4965881;28;20191;-61
2023/04/02 10:37:09;;;;;;;0.80;0.80;;;;;;;;;;4957564;28;20198;-61
2023/04/02 10:39:37;;;;;;;0.90;0.90;;;;;;;;;;4964576;28;20230;-60
2023/04/02 10:42:09;;;;;;;0.80;0.80;;;;;;;;;;4959641;28;20202;-61
2023/04/02 10:44:36;;;;;;;0.90;0.90;;;;;;;;;;4955435;28;22819;-60
2023/04/02 10:47:21;;;;;;;0.80;0.80;;;;;;;;;;4960202;28;20234;-61
2023/04/02 10:49:51;;;;;;;1.00;1.00;;;;;;;;;;4971956;28;20284;-61
2023/04/02 10:52:20;;;;;;;0.90;0.90;;;;;;;;;;4958418;28;20210;-60
2023/04/02 10:54:49;;;;;;;0.90;0.90;;;;;;;;;;4958090;28;20414;-61
2023/04/02 10:57:31;;;;;;;0.77;0.77;;;;;;;;;;4962324;28;20182;-61
2023/04/02 10:59:59;;;;;;;0.80;0.80;;;;;;;;;;4962612;28;20191;-61
2023/04/02 11:02:28;;;;;;;0.70;0.70;;;;;;;;;;4958542;28;20205;-60
2023/04/02 11:04:55;;;;;;;0.87;0.87;;;;;;;;;;4962120;28;20194;-60
2023/04/02 11:07:21;;;;;;;0.80;0.80;;;;;;;;;;4962990;28;20625;-61
2023/04/02 11:09:48;;;;;;;0.90;0.90;;;;;;;;;;4957356;28;20219;-60
2023/04/02 11:12:33;;;;;;;1.00;1.00;;;;;;;;;;4955201;28;20729;-61
2023/04/02 11:14:59;;;;;;;0.90;0.90;;;;;;;;;;4953719;28;20217;-61
2023/04/02 11:17:25;;;;;;;0.90;0.90;;;;;;;;;;4958181;28;20278;-61
2023/04/02 11:19:51;;;;;;;0.80;0.80;;;;;;;;;;4959908;28;20197;-60
2023/04/02 11:22:19;;;;;;;0.73;0.73;;;;;;;;;;4957811;28;20320;-61
2023/04/02 11:24:46;;;;;;;1.00;1.00;;;;;;;;;;4970778;28;20194;-61
2023/04/02 11:27:15;;;;;;;0.90;0.90;;;;;;;;;;4963972;28;20201;-61
2023/04/02 11:29:42;;;;;;;0.80;0.80;;;;;;;;;;4970821;28;20210;-60
2023/04/02 11:32:26;;;;;;;0.70;0.70;;;;;;;;;;4978083;28;20207;-60
2023/04/02 11:34:54;;;;;;;0.80;0.80;;;;;;;;;;4977590;28;20559;-60
2023/04/02 11:37:32;;;;;;;0.90;0.90;;;;;;;;;;4979697;28;20691;-59
2023/04/02 11:39:59;;;;;;;0.90;0.90;;;;;;;;;;4975035;28;20292;-62
2023/04/02 11:42:25;;;;;;;0.70;0.70;;;;;;;;;;4973527;28;20722;-61
2023/04/02 11:44:51;;;;;;;0.90;0.90;;;;;;;;;;4979953;28;20202;-61
2023/04/02 11:47:18;;;;;;;0.90;0.90;;;;;;;;;;4977472;28;20232;-60
2023/04/02 11:50:02;;;;;;;0.90;0.90;;;;;;;;;;4978328;28;20258;-61
2023/04/02 11:52:32;;;;;;;0.80;0.80;;;;;;;;;;4988018;28;20211;-62
2023/04/02 11:55:01;;;;;;;0.80;0.80;;;;;;;;;;4983645;28;20187;-61
2023/04/02 11:57:33;;;;;;;0.90;0.90;;;;;;;;;;4989350;28;20186;-61
2023/04/02 12:00:18;;;;;;;0.87;0.87;;;;;;;;;;4983206;28;20182;-61
2023/04/02 12:03:02;;;;;;;0.83;0.83;;;;;;;;;;4976351;28;20241;-61
2023/04/02 12:05:36;;;;;;;1.10;1.10;;;;;;;;;;4956901;28;20182;-61
2023/04/02 12:08:06;;;;;;;1.10;1.10;;;;;;;;;;4967806;28;20582;-61
2023/04/02 12:10:33;;;;;;;1.10;1.10;;;;;;;;;;4954668;28;20225;-61
2023/04/02 12:12:59;;;;;;;0.90;0.90;;;;;;;;;;4974645;28;20206;-60
2023/04/02 12:15:44;;;;;;;0.80;0.80;;;;;;;;;;4964481;28;20253;-61
2023/04/02 12:18:14;;;;;;;0.80;0.80;;;;;;;;;;4963288;28;20649;-61
2023/04/02 12:20:41;;;;;;;0.80;0.80;;;;;;;;;;4977695;28;20190;-61
2023/04/02 12:23:12;;;;;;;1.00;1.00;;;;;;;;;;4974883;28;20221;-61
2023/04/02 12:25:39;;;;;;;0.90;0.90;;;;;;;;;;4951684;28;20198;-61
2023/04/02 12:28:06;;;;;;;1.00;1.00;;;;;;;;;;4968462;28;20201;-61
2023/04/02 12:30:32;;;;;;;0.90;0.90;;;;;;;;;;4963594;28;20194;-64
2023/04/02 12:33:13;;;;;;;0.90;0.90;;;;;;;;;;4959902;28;20239;-61
2023/04/02 12:35:39;;;;;;;0.90;0.90;;;;;;;;;;4977311;28;20187;-60
2023/04/02 12:38:14;;;;;;;0.97;0.97;;;;;;;;;;4972521;28;20199;-60
2023/04/02 12:40:40;;;;;;;0.90;0.90;;;;;;;;;;4962795;28;20296;-60
2023/04/02 12:43:21;;;;;;;1.00;1.00;;;;;;;;;;4969171;28;20194;-61
2023/04/02 12:45:50;;;;;;;1.00;1.00;;;;;;;;;;4974294;28;20186;-60
2023/04/02 12:48:16;;;;;;;0.90;0.90;;;;;;;;;;4975882;28;20191;-59
2023/04/02 12:50:42;;;;;;;0.80;0.80;;;;;;;;;;4956740;28;20555;-59
2023/04/02 12:53:13;;;;;;;1.00;1.00;;;;;;;;;;4963746;28;20214;-60
2023/04/02 12:55:39;;;;;;;0.90;0.90;;;;;;;;;;4977747;28;20190;-61
2023/04/02 12:58:18;;;;;;;1.00;1.00;;;;;;;;;;4964512;28;20579;-61
2023/04/02 13:00:44;;;;;;;0.80;0.80;;;;;;;;;;4968069;28;20186;-61
2023/04/02 13:03:16;;;;;;;1.00;1.00;;;;;;;;;;4972881;28;20190;-61
2023/04/02 13:05:44;;;;;;;0.80;0.80;;;;;;;;;;4971198;28;20244;-60
2023/04/02 13:08:17;;;;;;;0.80;0.80;;;;;;;;;;4974853;28;20682;-61
2023/04/02 13:10:43;;;;;;;0.93;0.93;;;;;;;;;;4973154;28;20250;-61
2023/04/02 13:13:16;;;;;;;0.80;0.80;;;;;;;;;;4970682;28;21042;-60
2023/04/02 13:15:42;;;;;;;1.00;1.00;;;;;;;;;;4966582;28;20191;-61
2023/04/02 13:18:21;;;;;;;1.00;1.00;;;;;;;;;;4963893;28;20675;-61
2023/04/02 13:21:00;;;;;;;1.10;1.10;;;;;;;;;;4944254;28;20194;-61
2023/04/02 13:23:29;;;;;;;1.00;1.00;;;;;;;;;;4963047;28;20187;-60
2023/04/02 13:25:55;;;;;;;1.00;1.00;;;;;;;;;;4972549;28;20202;-60
2023/04/02 13:28:21;;;;;;;1.00;1.00;;;;;;;;;;4970498;28;20729;-60
2023/04/02 13:30:47;;;;;;;1.00;1.00;;;;;;;;;;4966357;28;20698;-60
2023/04/02 13:33:13;;;;;;;0.87;0.87;;;;;;;;;;4970453;28;20217;-60
2023/04/02 13:35:39;;;;;;;0.90;0.90;;;;;;;;;;4965317;28;20716;-60
2023/04/02 13:38:05;;;;;;;0.97;0.97;;;;;;;;;;4967857;28;21631;-60
2023/04/02 13:40:32;;;;;;;0.90;0.90;;;;;;;;;;4968263;28;20261;-60
2023/04/02 13:42:58;;;;;;;0.90;0.90;;;;;;;;;;4971970;28;20226;-60
2023/04/02 13:45:25;;;;;;;1.00;1.00;;;;;;;;;;4972613;28;22436;-60
2023/04/02 13:47:51;;;;;;;1.00;1.00;;;;;;;;;;4975822;28;20636;-60
2023/04/02 13:50:17;;;;;;;0.90;0.90;;;;;;;;;;4962248;28;20735;-60
2023/04/02 13:52:43;;;;;;;1.10;1.10;;;;;;;;;;4971052;28;20217;-60
2023/04/02 13:55:09;;;;;;;1.00;1.00;;;;;;;;;;4975353;28;20198;-60
2023/04/02 13:57:36;;;;;;;1.00;1.00;;;;;;;;;;4963846;28;20194;-60
2023/04/02 14:00:03;;;;;;;1.00;1.00;;;;;;;;;;4976969;28;20187;-60
2023/04/02 14:02:29;;;;;;;0.90;0.90;;;;;;;;;;4976768;28;20237;-60
2023/04/02 14:04:59;;;;;;;1.00;1.00;;;;;;;;;;4971125;28;20576;-60
2023/04/02 14:07:25;;;;;;;1.00;1.00;;;;;;;;;;4969910;28;20207;-60
2023/04/02 14:10:10;;;;;;;1.00;1.00;;;;;;;;;;4960987;28;20205;-60
2023/04/02 14:12:51;;;;;;;1.00;1.00;;;;;;;;;;4970016;28;20229;-60
2023/04/02 14:15:17;;;;;;;1.10;1.10;;;;;;;;;;4965664;28;20194;-60
2023/04/02 14:17:50;;;;;;;0.90;0.90;;;;;;;;;;4959261;28;20611;-60
2023/04/02 14:20:35;;;;;;;0.90;0.90;;;;;;;;;;4946974;28;20730;-60
2023/04/02 14:23:13;;;;;;;0.90;0.90;;;;;;;;;;4957999;28;20221;-61
2023/04/02 14:25:43;;;;;;;0.80;0.80;;;;;;;;;;4966602;28;20910;-61
2023/04/02 14:28:28;;;;;;;1.00;1.00;;;;;;;;;;4956184;28;20934;-60
2023/04/02 14:31:00;;;;;;;0.80;0.80;;;;;;;;;;4953910;28;20249;-60
2023/04/02 14:33:42;;;;;;;0.80;0.80;;;;;;;;;;4971739;28;20795;-61
2023/04/02 14:36:16;;;;;;;0.80;0.80;;;;;;;;;;4970040;28;20841;-60
2023/04/02 14:39:17;;;;;;;0.90;0.90;;;;;;;;;;4946302;28;20655;-60
2023/04/02 14:41:57;;;;;;;0.80;0.80;;;;;;;;;;4916404;29;21289;-60
2023/04/02 14:44:25;;;;;;;0.93;0.93;;;;;;;;;;4944380;28;20211;-60
2023/04/02 14:46:52;;;;;;;0.90;0.90;;;;;;;;;;4963512;28;20193;-61
2023/04/02 14:49:25;;;;;;;0.90;0.90;;;;;;;;;;4975524;28;20867;-60
2023/04/02 14:51:51;;;;;;;0.90;0.90;;;;;;;;;;4960789;28;20238;-60
2023/04/02 14:54:21;;;;;;;0.70;0.70;;;;;;;;;;4965366;28;20609;-60
2023/04/02 14:56:49;;;;;;;0.90;0.90;;;;;;;;;;4946136;28;20540;-61
2023/04/02 14:59:19;;;;;;;0.90;0.90;;;;;;;;;;4961730;28;20309;-60
2023/04/02 15:01:45;;;;;;;0.90;0.90;;;;;;;;;;4954995;28;20190;-59